sensor_id;sensor_type;location;lat;lon;timestamp;pressure;altitude;pressure_sealevel;temperature;humidity
62710;BME280;48770;51.624;5.886;2022-08-30T00:00:40;101937.19;;;24.41;37.72
62710;BME280;48770;51.624;5.886;2022-08-30T00:03:24;101937.06;;;24.37;37.81
62710;BME280;48770;51.624;5.886;2022-08-30T00:05:52;101929.50;;;24.38;37.98
62710;BME280;48770;51.624;5.886;2022-08-30T00:08:17;101934.63;;;24.36;37.98
62710;BME280;48770;51.624;5.886;2022-08-30T00:10:43;101930.22;;;24.35;38.22
62710;BME280;48770;51.624;5.886;2022-08-30T00:13:09;101932.19;;;24.34;38.03
62710;BME280;48770;51.624;5.886;2022-08-30T00:15:37;101929.75;;;24.33;37.97
62710;BME280;48770;51.624;5.886;2022-08-30T00:18:03;101928.94;;;24.32;38.03
62710;BME280;48770;51.624;5.886;2022-08-30T00:20:30;101929.28;;;24.31;38.26
62710;BME280;48770;51.624;5.886;2022-08-30T00:22:56;101926.84;;;24.29;38.45
62710;BME280;48770;51.624;5.886;2022-08-30T00:25:22;101927.16;;;24.27;38.12
62710;BME280;48770;51.624;5.886;2022-08-30T00:27:48;101929.94;;;24.27;38.26
62710;BME280;48770;51.624;5.886;2022-08-30T00:30:15;101931.94;;;24.27;38.45
62710;BME280;48770;51.624;5.886;2022-08-30T00:32:41;101934.25;;;24.25;38.33
62710;BME280;48770;51.624;5.886;2022-08-30T00:35:10;101926.22;;;24.23;38.24
62710;BME280;48770;51.624;5.886;2022-08-30T00:37:36;101927.75;;;24.21;38.06
62710;BME280;48770;51.624;5.886;2022-08-30T00:40:03;101919.38;;;24.21;38.53
62710;BME280;48770;51.624;5.886;2022-08-30T00:42:30;101924.47;;;24.19;38.53
62710;BME280;48770;51.624;5.886;2022-08-30T00:44:55;101925.63;;;24.18;38.45
62710;BME280;48770;51.624;5.886;2022-08-30T00:47:20;101929.59;;;24.17;38.36
62710;BME280;48770;51.624;5.886;2022-08-30T00:49:48;101929.94;;;24.15;38.25
62710;BME280;48770;51.624;5.886;2022-08-30T00:52:17;101932.72;;;24.15;38.40
62710;BME280;48770;51.624;5.886;2022-08-30T00:54:43;101936.69;;;24.14;38.25
62710;BME280;48770;51.624;5.886;2022-08-30T00:57:11;101932.28;;;24.13;38.59
62710;BME280;48770;51.624;5.886;2022-08-30T00:59:38;101928.19;;;24.11;38.45
62710;BME280;48770;51.624;5.886;2022-08-30T01:02:04;101931.00;;;24.11;38.59
62710;BME280;48770;51.624;5.886;2022-08-30T01:04:30;101926.09;;;24.08;38.38
62710;BME280;48770;51.624;5.886;2022-08-30T01:06:56;101928.09;;;24.07;38.73
62710;BME280;48770;51.624;5.886;2022-08-30T01:09:22;101928.91;;;24.08;38.69
62710;BME280;48770;51.624;5.886;2022-08-30T01:11:47;101931.56;;;24.04;38.36
62710;BME280;48770;51.624;5.886;2022-08-30T01:14:14;101935.19;;;24.05;38.80
62710;BME280;48770;51.624;5.886;2022-08-30T01:16:42;101938.78;;;24.05;38.72
62710;BME280;48770;51.624;5.886;2022-08-30T01:24:51;101939.38;;;23.98;38.64
62710;BME280;48770;51.624;5.886;2022-08-30T01:27:21;101940.53;;;23.97;38.67
62710;BME280;48770;51.624;5.886;2022-08-30T01:29:47;101939.72;;;23.97;38.71
62710;BME280;48770;51.624;5.886;2022-08-30T01:32:19;101948.47;;;23.95;38.53
62710;BME280;48770;51.624;5.886;2022-08-30T01:34:45;101951.56;;;23.94;38.53
62710;BME280;48770;51.624;5.886;2022-08-30T01:37:20;101948.78;;;23.94;38.73
62710;BME280;48770;51.624;5.886;2022-08-30T01:39:46;101947.50;;;23.91;38.87
62710;BME280;48770;51.624;5.886;2022-08-30T01:42:15;101941.09;;;23.91;38.96
62710;BME280;48770;51.624;5.886;2022-08-30T01:44:44;101949.00;;;23.89;38.97
62710;BME280;48770;51.624;5.886;2022-08-30T01:47:09;101949.00;;;23.89;38.76
62710;BME280;48770;51.624;5.886;2022-08-30T01:49:35;101944.56;;;23.88;38.76
62710;BME280;48770;51.624;5.886;2022-08-30T01:52:01;101942.13;;;23.86;38.64
62710;BME280;48770;51.624;5.886;2022-08-30T01:54:28;101942.47;;;23.85;38.79
62710;BME280;48770;51.624;5.886;2022-08-30T01:56:53;101941.66;;;23.84;38.90
62710;BME280;48770;51.624;5.886;2022-08-30T01:59:19;101933.63;;;23.83;39.06
62710;BME280;48770;51.624;5.886;2022-08-30T02:01:44;101937.59;;;23.82;38.81
62710;BME280;48770;51.624;5.886;2022-08-30T02:04:09;101932.34;;;23.80;39.00
62710;BME280;48770;51.624;5.886;2022-08-30T02:06:37;101938.75;;;23.81;39.03
62710;BME280;48770;51.624;5.886;2022-08-30T02:09:03;101931.53;;;23.80;39.01
62710;BME280;48770;51.624;5.886;2022-08-30T02:11:29;101932.72;;;23.79;38.85
62710;BME280;48770;51.624;5.886;2022-08-30T02:13:54;101927.47;;;23.77;38.83
62710;BME280;48770;51.624;5.886;2022-08-30T02:16:21;101928.63;;;23.76;39.00
62710;BME280;48770;51.624;5.886;2022-08-30T02:18:49;101925.03;;;23.76;38.86
62710;BME280;48770;51.624;5.886;2022-08-30T02:21:15;101918.97;;;23.74;38.96
62710;BME280;48770;51.624;5.886;2022-08-30T02:23:41;101917.34;;;23.73;39.09
62710;BME280;48770;51.624;5.886;2022-08-30T02:26:07;101913.72;;;23.72;39.32
62710;BME280;48770;51.624;5.886;2022-08-30T02:28:33;101912.09;;;23.71;39.05
62710;BME280;48770;51.624;5.886;2022-08-30T02:30:59;101915.25;;;23.70;39.05
62710;BME280;48770;51.624;5.886;2022-08-30T02:33:24;101917.22;;;23.69;39.10
62710;BME280;48770;51.624;5.886;2022-08-30T02:35:50;101911.13;;;23.67;39.28
62710;BME280;48770;51.624;5.886;2022-08-30T02:38:15;101910.66;;;23.65;39.46
62710;BME280;48770;51.624;5.886;2022-08-30T02:40:41;101912.66;;;23.64;39.24
62710;BME280;48770;51.624;5.886;2022-08-30T02:43:06;101917.41;;;23.64;39.20
62710;BME280;48770;51.624;5.886;2022-08-30T02:45:32;101914.16;;;23.62;39.01
62710;BME280;48770;51.624;5.886;2022-08-30T02:47:57;101921.72;;;23.61;39.13
62710;BME280;48770;51.624;5.886;2022-08-30T02:50:23;101914.50;;;23.60;39.14
62710;BME280;48770;51.624;5.886;2022-08-30T02:52:49;101921.25;;;23.59;38.94
62710;BME280;48770;51.624;5.886;2022-08-30T02:55:15;101911.25;;;23.58;39.13
62710;BME280;48770;51.624;5.886;2022-08-30T02:57:40;101901.25;;;23.57;38.83
62710;BME280;48770;51.624;5.886;2022-08-30T03:00:09;101902.41;;;23.56;39.28
62710;BME280;48770;51.624;5.886;2022-08-30T03:02:36;101902.72;;;23.55;39.06
62710;BME280;48770;51.624;5.886;2022-08-30T03:05:02;101909.47;;;23.54;39.43
62710;BME280;48770;51.624;5.886;2022-08-30T03:07:28;101915.41;;;23.52;39.54
62710;BME280;48770;51.624;5.886;2022-08-30T03:09:53;101905.38;;;23.51;39.29
62710;BME280;48770;51.624;5.886;2022-08-30T03:12:18;101904.56;;;23.51;39.55
62710;BME280;48770;51.624;5.886;2022-08-30T03:14:44;101916.09;;;23.49;39.27
62710;BME280;48770;51.624;5.886;2022-08-30T03:17:09;101915.28;;;23.49;39.05
62710;BME280;48770;51.624;5.886;2022-08-30T03:19:36;101920.03;;;23.48;39.28
62710;BME280;48770;51.624;5.886;2022-08-30T03:22:05;101918.41;;;23.47;39.19
62710;BME280;48770;51.624;5.886;2022-08-30T03:24:32;101914.00;;;23.46;39.26
62710;BME280;48770;51.624;5.886;2022-08-30T03:26:57;101911.19;;;23.46;39.37
62710;BME280;48770;51.624;5.886;2022-08-30T03:29:23;101906.78;;;23.45;39.27
62710;BME280;48770;51.624;5.886;2022-08-30T03:31:49;101905.16;;;23.44;39.43
62710;BME280;48770;51.624;5.886;2022-08-30T03:34:14;101910.25;;;23.42;39.36
62710;BME280;48770;51.624;5.886;2022-08-30T03:36:40;101911.41;;;23.41;39.62
62710;BME280;48770;51.624;5.886;2022-08-30T03:39:07;101912.56;;;23.40;39.16
62710;BME280;48770;51.624;5.886;2022-08-30T03:41:33;101906.97;;;23.40;39.31
62710;BME280;48770;51.624;5.886;2022-08-30T03:43:59;101901.72;;;23.38;39.45
62710;BME280;48770;51.624;5.886;2022-08-30T03:46:24;101910.91;;;23.39;39.57
62710;BME280;48770;51.624;5.886;2022-08-30T03:48:50;101915.22;;;23.36;39.52
62710;BME280;48770;51.624;5.886;2022-08-30T03:51:17;101910.81;;;23.35;39.34
62710;BME280;48770;51.624;5.886;2022-08-30T03:53:42;101916.38;;;23.35;39.40
62710;BME280;48770;51.624;5.886;2022-08-30T03:56:08;101919.50;;;23.34;39.40
62710;BME280;48770;51.624;5.886;2022-08-30T03:58:33;101914.28;;;23.32;39.40
62710;BME280;48770;51.624;5.886;2022-08-30T04:00:59;101917.41;;;23.31;39.32
62710;BME280;48770;51.624;5.886;2022-08-30T04:03:24;101915.78;;;23.30;39.46
62710;BME280;48770;51.624;5.886;2022-08-30T04:05:54;101917.75;;;23.29;39.70
62710;BME280;48770;51.624;5.886;2022-08-30T04:08:20;101918.09;;;23.28;39.49
62710;BME280;48770;51.624;5.886;2022-08-30T04:10:47;101915.31;;;23.28;39.65
62710;BME280;48770;51.624;5.886;2022-08-30T04:13:13;101918.09;;;23.28;39.50
62710;BME280;48770;51.624;5.886;2022-08-30T04:15:39;101916.47;;;23.27;39.53
62710;BME280;48770;51.624;5.886;2022-08-30T04:18:04;101911.59;;;23.24;39.84
62710;BME280;48770;51.624;5.886;2022-08-30T04:20:30;101915.19;;;23.24;39.68
62710;BME280;48770;51.624;5.886;2022-08-30T04:22:55;101914.72;;;23.22;39.80
62710;BME280;48770;51.624;5.886;2022-08-30T04:25:23;101920.31;;;23.22;39.75
62710;BME280;48770;51.624;5.886;2022-08-30T04:27:48;101917.84;;;23.21;39.57
62710;BME280;48770;51.624;5.886;2022-08-30T04:30:15;101913.44;;;23.20;39.89
62710;BME280;48770;51.624;5.886;2022-08-30T04:32:41;101923.78;;;23.19;39.66
62710;BME280;48770;51.624;5.886;2022-08-30T04:35:07;101921.34;;;23.18;39.74
62710;BME280;48770;51.624;5.886;2022-08-30T04:37:32;101923.31;;;23.17;39.95
62710;BME280;48770;51.624;5.886;2022-08-30T04:39:58;101924.47;;;23.16;39.90
62710;BME280;48770;51.624;5.886;2022-08-30T04:42:30;101924.78;;;23.15;39.54
62710;BME280;48770;51.624;5.886;2022-08-30T04:44:58;101924.78;;;23.15;39.90
62710;BME280;48770;51.624;5.886;2022-08-30T04:47:24;101926.75;;;23.14;40.01
62710;BME280;48770;51.624;5.886;2022-08-30T04:49:51;101925.94;;;23.14;39.62
62710;BME280;48770;51.624;5.886;2022-08-30T04:52:16;101927.09;;;23.13;39.74
62710;BME280;48770;51.624;5.886;2022-08-30T04:54:42;101937.78;;;23.11;39.90
62710;BME280;48770;51.624;5.886;2022-08-30T04:57:07;101942.91;;;23.08;39.88
62710;BME280;48770;51.624;5.886;2022-08-30T04:59:32;101950.44;;;23.08;39.78
62710;BME280;48770;51.624;5.886;2022-08-30T05:01:58;101942.41;;;23.06;39.71
62710;BME280;48770;51.624;5.886;2022-08-30T05:04:24;101952.75;;;23.06;39.89
62710;BME280;48770;51.624;5.886;2022-08-30T05:06:49;101949.16;;;23.05;39.84
62710;BME280;48770;51.624;5.886;2022-08-30T05:09:14;101947.53;;;23.04;39.74
62710;BME280;48770;51.624;5.886;2022-08-30T05:11:40;101952.28;;;23.04;39.90
62710;BME280;48770;51.624;5.886;2022-08-30T05:14:07;101951.47;;;23.03;39.73
62710;BME280;48770;51.624;5.886;2022-08-30T05:16:33;101951.00;;;23.01;39.63
62710;BME280;48770;51.624;5.886;2022-08-30T05:18:58;101951.00;;;23.01;40.11
62710;BME280;48770;51.624;5.886;2022-08-30T05:21:25;101952.97;;;23.01;40.01
62710;BME280;48770;51.624;5.886;2022-08-30T05:23:55;101960.88;;;22.99;39.68
62710;BME280;48770;51.624;5.886;2022-08-30T05:26:24;101955.28;;;22.99;40.01
62710;BME280;48770;51.624;5.886;2022-08-30T05:28:51;101962.03;;;22.98;40.25
62710;BME280;48770;51.624;5.886;2022-08-30T05:31:28;101957.59;;;22.97;40.21
62710;BME280;48770;51.624;5.886;2022-08-30T05:33:54;101962.72;;;22.95;39.96
62710;BME280;48770;51.624;5.886;2022-08-30T05:36:22;101966.31;;;22.95;40.36
62710;BME280;48770;51.624;5.886;2022-08-30T05:38:48;101953.88;;;22.93;39.88
62710;BME280;48770;51.624;5.886;2022-08-30T05:41:15;101971.41;;;22.93;40.37
62710;BME280;48770;51.624;5.886;2022-08-30T05:43:42;101965.38;;;22.91;40.36
62710;BME280;48770;51.624;5.886;2022-08-30T05:46:10;101967.34;;;22.91;40.11
62710;BME280;48770;51.624;5.886;2022-08-30T05:48:36;101974.88;;;22.90;40.25
62710;BME280;48770;51.624;5.886;2022-08-30T05:51:22;101972.75;;;22.87;40.18
62710;BME280;48770;51.624;5.886;2022-08-30T05:53:49;101975.53;;;22.87;40.18
62710;BME280;48770;51.624;5.886;2022-08-30T05:56:21;101974.72;;;22.87;40.15
62710;BME280;48770;51.624;5.886;2022-08-30T05:58:47;101971.94;;;22.87;40.23
62710;BME280;48770;51.624;5.886;2022-08-30T06:03:45;101975.41;;;22.84;40.44
62710;BME280;48770;51.624;5.886;2022-08-30T06:06:11;101980.16;;;22.83;40.25
62710;BME280;48770;51.624;5.886;2022-08-30T06:08:36;101978.53;;;22.82;40.41
62710;BME280;48770;51.624;5.886;2022-08-30T06:11:01;101976.06;;;22.81;40.40
62710;BME280;48770;51.624;5.886;2022-08-30T06:13:26;101970.47;;;22.81;40.56
62710;BME280;48770;51.624;5.886;2022-08-30T06:15:52;101964.44;;;22.78;40.42
62710;BME280;48770;51.624;5.886;2022-08-30T06:18:17;101973.59;;;22.79;40.56
62710;BME280;48770;51.624;5.886;2022-08-30T06:20:44;101973.94;;;22.77;40.58
62710;BME280;48770;51.624;5.886;2022-08-30T06:23:12;101964.75;;;22.77;40.81
62710;BME280;48770;51.624;5.886;2022-08-30T06:25:37;101965.59;;;22.77;40.79
62710;BME280;48770;51.624;5.886;2022-08-30T06:28:06;101966.75;;;22.76;40.80
62710;BME280;48770;51.624;5.886;2022-08-30T06:30:32;101968.72;;;22.76;40.62
62710;BME280;48770;51.624;5.886;2022-08-30T06:32:58;101967.91;;;22.75;40.99
62710;BME280;48770;51.624;5.886;2022-08-30T06:35:25;101965.09;;;22.75;41.00
62710;BME280;48770;51.624;5.886;2022-08-30T06:37:50;101971.03;;;22.74;40.77
62710;BME280;48770;51.624;5.886;2022-08-30T06:40:16;101969.38;;;22.73;40.65
62710;BME280;48770;51.624;5.886;2022-08-30T06:42:44;101966.25;;;22.74;41.02
62710;BME280;48770;51.624;5.886;2022-08-30T06:45:09;101963.81;;;22.73;40.95
62710;BME280;48770;51.624;5.886;2022-08-30T06:47:34;101964.97;;;22.72;40.93
62710;BME280;48770;51.624;5.886;2022-08-30T06:50:00;101963.00;;;22.72;40.98
62710;BME280;48770;51.624;5.886;2022-08-30T06:52:25;101962.19;;;22.72;41.11
62710;BME280;48770;51.624;5.886;2022-08-30T06:54:50;101955.78;;;22.71;40.91
62710;BME280;48770;51.624;5.886;2022-08-30T06:57:17;101962.19;;;22.72;41.09
62710;BME280;48770;51.624;5.886;2022-08-30T06:59:42;101960.53;;;22.71;41.23
62710;BME280;48770;51.624;5.886;2022-08-30T07:02:08;101954.97;;;22.71;40.85
62710;BME280;48770;51.624;5.886;2022-08-30T07:04:34;101967.75;;;22.72;41.03
62710;BME280;48770;51.624;5.886;2022-08-30T07:07:00;101969.72;;;22.71;40.93
62710;BME280;48770;51.624;5.886;2022-08-30T07:09:25;101966.13;;;22.71;41.08
62710;BME280;48770;51.624;5.886;2022-08-30T07:11:51;101964.16;;;22.71;41.27
62710;BME280;48770;51.624;5.886;2022-08-30T07:14:18;101970.53;;;22.72;41.31
62710;BME280;48770;51.624;5.886;2022-08-30T07:16:44;101964.97;;;22.72;41.46
62710;BME280;48770;51.624;5.886;2022-08-30T07:19:09;101964.97;;;22.72;40.99
62710;BME280;48770;51.624;5.886;2022-08-30T07:21:37;101961.03;;;22.73;40.82
62710;BME280;48770;51.624;5.886;2022-08-30T07:24:04;101972.19;;;22.73;41.27
62710;BME280;48770;51.624;5.886;2022-08-30T07:26:37;101968.56;;;22.72;41.10
62710;BME280;48770;51.624;5.886;2022-08-30T07:29:03;101970.53;;;22.72;41.12
62710;BME280;48770;51.624;5.886;2022-08-30T07:31:29;101973.34;;;22.72;41.29
62710;BME280;48770;51.624;5.886;2022-08-30T07:33:55;101972.19;;;22.73;41.28
62710;BME280;48770;51.624;5.886;2022-08-30T07:36:21;101973.34;;;22.72;41.54
62710;BME280;48770;51.624;5.886;2022-08-30T07:38:48;101984.16;;;22.73;41.59
62710;BME280;48770;51.624;5.886;2022-08-30T07:41:43;101982.38;;;22.69;41.61
62710;BME280;48770;51.624;5.886;2022-08-30T07:44:09;101987.28;;;22.72;41.63
62710;BME280;48770;51.624;5.886;2022-08-30T07:46:36;101984.97;;;22.74;41.46
62710;BME280;48770;51.624;5.886;2022-08-30T07:49:02;101983.81;;;22.75;41.34
62710;BME280;48770;51.624;5.886;2022-08-30T07:51:28;101984.63;;;22.75;41.40
62710;BME280;48770;51.624;5.886;2022-08-30T07:53:55;101988.22;;;22.76;41.65
62710;BME280;48770;51.624;5.886;2022-08-30T07:56:21;101983.47;;;22.76;41.64
62710;BME280;48770;51.624;5.886;2022-08-30T07:58:46;101983.47;;;22.76;41.38
62710;BME280;48770;51.624;5.886;2022-08-30T08:01:13;101983.13;;;22.78;41.70
62710;BME280;48770;51.624;5.886;2022-08-30T08:03:40;101985.09;;;22.77;41.64
62710;BME280;48770;51.624;5.886;2022-08-30T08:06:08;101981.50;;;22.77;41.79
62710;BME280;48770;51.624;5.886;2022-08-30T08:08:34;101993.94;;;22.80;42.01
62710;BME280;48770;51.624;5.886;2022-08-30T08:11:11;101991.97;;;22.80;41.48
62710;BME280;48770;51.624;5.886;2022-08-30T08:13:38;101998.38;;;22.81;42.14
62710;BME280;48770;51.624;5.886;2022-08-30T08:16:04;101996.41;;;22.81;41.57
62710;BME280;48770;51.624;5.886;2022-08-30T08:18:29;101999.22;;;22.81;41.67
62710;BME280;48770;51.624;5.886;2022-08-30T08:20:56;101994.44;;;22.82;41.81
62710;BME280;48770;51.624;5.886;2022-08-30T08:23:21;102000.03;;;22.82;42.03
62710;BME280;48770;51.624;5.886;2022-08-30T08:25:47;101993.63;;;22.81;41.89
62710;BME280;48770;51.624;5.886;2022-08-30T08:28:12;102002.00;;;22.81;42.03
62710;BME280;48770;51.624;5.886;2022-08-30T08:30:38;101995.91;;;22.79;42.06
62710;BME280;48770;51.624;5.886;2022-08-30T08:33:04;101992.31;;;22.78;41.87
62710;BME280;48770;51.624;5.886;2022-08-30T08:35:30;101992.31;;;22.78;41.57
62710;BME280;48770;51.624;5.886;2022-08-30T08:37:56;101998.69;;;22.79;42.06
62710;BME280;48770;51.624;5.886;2022-08-30T08:40:21;102004.63;;;22.77;41.77
62710;BME280;48770;51.624;5.886;2022-08-30T08:42:53;101997.41;;;22.76;42.23
62710;BME280;48770;51.624;5.886;2022-08-30T08:45:47;101994.63;;;22.76;41.78
62710;BME280;48770;51.624;5.886;2022-08-30T08:50:54;102000.19;;;22.76;42.18
62710;BME280;48770;51.624;5.886;2022-08-30T08:53:39;102002.16;;;22.76;42.16
62710;BME280;48770;51.624;5.886;2022-08-30T08:56:12;101992.66;;;22.77;42.11
62710;BME280;48770;51.624;5.886;2022-08-30T08:58:47;101994.28;;;22.78;42.13
62710;BME280;48770;51.624;5.886;2022-08-30T09:01:15;102004.28;;;22.79;42.09
62710;BME280;48770;51.624;5.886;2022-08-30T09:03:41;101994.75;;;22.80;42.02
62710;BME280;48770;51.624;5.886;2022-08-30T09:09:05;102018.22;;;22.79;42.17
62710;BME280;48770;51.624;5.886;2022-08-30T09:11:33;102009.22;;;22.82;42.45
62710;BME280;48770;51.624;5.886;2022-08-30T09:13:59;102015.25;;;22.84;42.81
62710;BME280;48770;51.624;5.886;2022-08-30T09:19:15;102005.75;;;22.85;42.69
62710;BME280;48770;51.624;5.886;2022-08-30T09:21:56;102010.16;;;22.86;42.76
62710;BME280;48770;51.624;5.886;2022-08-30T09:24:22;102005.88;;;22.89;43.17
62710;BME280;48770;51.624;5.886;2022-08-30T09:26:47;102010.00;;;22.91;42.92
62710;BME280;48770;51.624;5.886;2022-08-30T09:29:18;101999.31;;;22.93;42.92
62710;BME280;48770;51.624;5.886;2022-08-30T09:31:47;102002.56;;;22.95;43.18
62710;BME280;48770;51.624;5.886;2022-08-30T09:34:17;101997.47;;;22.97;43.04
62710;BME280;48770;51.624;5.886;2022-08-30T09:36:47;102008.28;;;22.99;42.96
62710;BME280;48770;51.624;5.886;2022-08-30T09:39:25;102008.75;;;23.01;43.45
62710;BME280;48770;51.624;5.886;2022-08-30T09:41:51;102005.63;;;23.02;43.44
62710;BME280;48770;51.624;5.886;2022-08-30T09:44:18;101998.56;;;23.05;43.79
62710;BME280;48770;51.624;5.886;2022-08-30T09:46:52;102006.59;;;23.06;43.27
62710;BME280;48770;51.624;5.886;2022-08-30T09:49:34;102004.28;;;23.08;43.55
62710;BME280;48770;51.624;5.886;2022-08-30T09:52:08;102006.72;;;23.10;43.70
62710;BME280;48770;51.624;5.886;2022-08-30T09:55:00;101994.75;;;23.10;43.72
62710;BME280;48770;51.624;5.886;2022-08-30T10:00:24;101998.13;;;23.15;43.48
62710;BME280;48770;51.624;5.886;2022-08-30T10:03:12;102001.44;;;23.17;43.44
62710;BME280;48770;51.624;5.886;2022-08-30T10:14:27;101996.25;;;23.28;43.94
62710;BME280;48770;51.624;5.886;2022-08-30T10:16:43;101988.34;;;23.30;43.88
62710;BME280;48770;51.624;5.886;2022-08-30T10:19:19;101994.06;;;23.33;43.72
62710;BME280;48770;51.624;5.886;2022-08-30T10:24:44;101996.63;;;23.38;43.58
62710;BME280;48770;51.624;5.886;2022-08-30T10:27:34;101983.16;;;23.41;43.18
62710;BME280;48770;51.624;5.886;2022-08-30T10:30:05;101979.69;;;23.44;43.61
62710;BME280;48770;51.624;5.886;2022-08-30T10:32:57;101982.63;;;23.47;43.40
62710;BME280;48770;51.624;5.886;2022-08-30T10:35:22;101975.06;;;23.48;43.25
62710;BME280;48770;51.624;5.886;2022-08-30T10:37:53;101986.34;;;23.51;43.75
62710;BME280;48770;51.624;5.886;2022-08-30T10:43:14;101976.63;;;23.57;43.65
62710;BME280;48770;51.624;5.886;2022-08-30T10:45:45;101988.25;;;23.59;43.59
62710;BME280;48770;51.624;5.886;2022-08-30T10:48:29;101982.00;;;23.62;43.90
62710;BME280;48770;51.624;5.886;2022-08-30T10:51:01;101979.66;;;23.64;43.57
62710;BME280;48770;51.624;5.886;2022-08-30T10:53:32;101987.34;;;23.67;43.91
62710;BME280;48770;51.624;5.886;2022-08-30T10:56:10;101977.50;;;23.70;43.75
62710;BME280;48770;51.624;5.886;2022-08-30T10:58:39;101980.75;;;23.72;43.76
62710;BME280;48770;51.624;5.886;2022-08-30T11:04:01;101975.75;;;23.78;43.64
62710;BME280;48770;51.624;5.886;2022-08-30T11:09:16;101971.09;;;23.82;43.80
62710;BME280;48770;51.624;5.886;2022-08-30T11:14:45;101969.25;;;23.86;44.05
62710;BME280;48770;51.624;5.886;2022-08-30T11:17:30;101968.91;;;23.87;43.94
62710;BME280;48770;51.624;5.886;2022-08-30T11:19:58;101967.03;;;23.91;43.80
62710;BME280;48770;51.624;5.886;2022-08-30T11:22:31;101960.44;;;23.96;43.96
62710;BME280;48770;51.624;5.886;2022-08-30T11:33:27;101965.09;;;24.04;43.93
62710;BME280;48770;51.624;5.886;2022-08-30T11:35:54;101966.38;;;24.07;44.36
62710;BME280;48770;51.624;5.886;2022-08-30T11:41:13;101957.41;;;24.13;43.78
62710;BME280;48770;51.624;5.886;2022-08-30T11:43:53;101957.88;;;24.15;43.91
62710;BME280;48770;51.624;5.886;2022-08-30T11:49:25;101964.41;;;24.19;43.95
62710;BME280;48770;51.624;5.886;2022-08-30T11:55:00;101945.44;;;24.25;44.32
62710;BME280;48770;51.624;5.886;2022-08-30T11:57:47;101952.81;;;24.29;44.21
62710;BME280;48770;51.624;5.886;2022-08-30T12:00:37;101942.56;;;24.34;44.20
62710;BME280;48770;51.624;5.886;2022-08-30T12:16:14;101936.56;;;24.72;44.01
62710;BME280;48770;51.624;5.886;2022-08-30T12:18:47;101936.78;;;24.79;43.99
62710;BME280;48770;51.624;5.886;2022-08-30T12:24:34;101932.06;;;24.95;43.84
62710;BME280;48770;51.624;5.886;2022-08-30T12:26:52;101931.16;;;25.03;43.66
62710;BME280;48770;51.624;5.886;2022-08-30T12:29:20;101924.25;;;25.13;43.57
62710;BME280;48770;51.624;5.886;2022-08-30T12:31:57;101931.66;;;25.21;43.24
62710;BME280;48770;51.624;5.886;2022-08-30T12:34:51;101919.06;;;25.27;43.56
62710;BME280;48770;51.624;5.886;2022-08-30T12:40:02;101914.75;;;25.45;42.81
62710;BME280;48770;51.624;5.886;2022-08-30T12:42:31;101909.81;;;25.55;43.10
62710;BME280;48770;51.624;5.886;2022-08-30T12:45:06;101911.63;;;25.63;42.98
62710;BME280;48770;51.624;5.886;2022-08-30T12:47:46;101919.41;;;25.69;42.58
62710;BME280;48770;51.624;5.886;2022-08-30T12:50:26;101907.59;;;25.76;42.50
62710;BME280;48770;51.624;5.886;2022-08-30T12:53:06;101903.81;;;25.84;42.45
62710;BME280;48770;51.624;5.886;2022-08-30T12:55:48;101912.03;;;25.93;42.27
62710;BME280;48770;51.624;5.886;2022-08-30T12:58:15;101915.38;;;25.98;42.42
62710;BME280;48770;51.624;5.886;2022-08-30T13:00:43;101914.38;;;26.06;42.33
62710;BME280;48770;51.624;5.886;2022-08-30T13:03:35;101917.34;;;26.13;41.92
62710;BME280;48770;51.624;5.886;2022-08-30T13:06:04;101911.53;;;26.22;41.59
62710;BME280;48770;51.624;5.886;2022-08-30T13:11:07;101908.31;;;26.36;41.45
62710;BME280;48770;51.624;5.886;2022-08-30T13:13:48;101897.25;;;26.43;41.12
62710;BME280;48770;51.624;5.886;2022-08-30T13:18:44;101904.75;;;26.55;40.83
62710;BME280;48770;51.624;5.886;2022-08-30T13:21:32;101908.44;;;26.59;40.57
62710;BME280;48770;51.624;5.886;2022-08-30T13:24:04;101901.28;;;26.61;40.91
62710;BME280;48770;51.624;5.886;2022-08-30T13:26:32;101889.31;;;26.64;40.82
62710;BME280;48770;51.624;5.886;2022-08-30T13:29:02;101894.63;;;26.69;40.69
62710;BME280;48770;51.624;5.886;2022-08-30T13:31:29;101903.50;;;26.71;40.62
62710;BME280;48770;51.624;5.886;2022-08-30T13:33:55;101893.97;;;26.76;40.70
62710;BME280;48770;51.624;5.886;2022-08-30T13:36:25;101897.59;;;26.77;40.52
62710;BME280;48770;51.624;5.886;2022-08-30T13:38:52;101884.00;;;26.79;40.29
62710;BME280;48770;51.624;5.886;2022-08-30T13:41:18;101890.09;;;26.81;40.54
62710;BME280;48770;51.624;5.886;2022-08-30T13:43:45;101890.53;;;26.83;40.50
62710;BME280;48770;51.624;5.886;2022-08-30T13:46:12;101881.75;;;26.84;40.24
62710;BME280;48770;51.624;5.886;2022-08-30T13:48:38;101891.41;;;26.87;40.39
62710;BME280;48770;51.624;5.886;2022-08-30T13:51:04;101881.00;;;26.87;40.31
62710;BME280;48770;51.624;5.886;2022-08-30T13:53:29;101874.19;;;26.88;40.35
62710;BME280;48770;51.624;5.886;2022-08-30T13:55:55;101871.03;;;26.90;40.07
62710;BME280;48770;51.624;5.886;2022-08-30T13:58:20;101867.03;;;26.91;40.06
62710;BME280;48770;51.624;5.886;2022-08-30T14:00:46;101864.66;;;26.93;40.24
62710;BME280;48770;51.624;5.886;2022-08-30T14:03:12;101866.72;;;26.96;40.03
62710;BME280;48770;51.624;5.886;2022-08-30T14:05:41;101859.94;;;26.97;39.80
62710;BME280;48770;51.624;5.886;2022-08-30T14:08:09;101858.75;;;26.98;40.09
62710;BME280;48770;51.624;5.886;2022-08-30T14:10:35;101863.22;;;26.99;40.15
62710;BME280;48770;51.624;5.886;2022-08-30T14:13:01;101863.22;;;26.99;40.01
62710;BME280;48770;51.624;5.886;2022-08-30T14:15:31;101860.47;;;27.02;40.12
62710;BME280;48770;51.624;5.886;2022-08-30T14:17:57;101852.06;;;27.02;39.91
62710;BME280;48770;51.624;5.886;2022-08-30T14:20:22;101854.47;;;27.04;39.96